sensor_id;sensor_type;location;lat;lon;timestamp;pressure;altitude;pressure_sealevel;temperature;humidity
2405;BME280;1213;43.206;27.922;2022-12-11T00:02:00;99930.59;;;16.57;100.00
2405;BME280;1213;43.206;27.922;2022-12-11T00:04:26;99919.81;;;16.58;100.00
2405;BME280;1213;43.206;27.922;2022-12-11T00:06:52;99911.31;;;16.47;100.00
2405;BME280;1213;43.206;27.922;2022-12-11T00:09:19;99916.47;;;16.40;100.00
2405;BME280;1213;43.206;27.922;2022-12-11T00:11:45;99909.41;;;16.23;100.00
2405;BME280;1213;43.206;27.922;2022-12-11T00:14:11;99913.44;;;16.01;100.00
2405;BME280;1213;43.206;27.922;2022-12-11T00:16:37;99921.97;;;15.87;100.00
2405;BME280;1213;43.206;27.922;2022-12-11T00:19:03;99911.22;;;15.62;100.00
2405;BME280;1213;43.206;27.922;2022-12-11T00:21:28;99909.06;;;15.40;100.00
2405;BME280;1213;43.206;27.922;2022-12-11T00:23:53;99922.31;;;15.22;100.00
2405;BME280;1213;43.206;27.922;2022-12-11T00:26:19;99921.34;;;15.05;100.00
2405;BME280;1213;43.206;27.922;2022-12-11T00:28:44;99922.63;;;15.01;100.00
2405;BME280;1213;43.206;27.922;2022-12-11T00:31:16;99921.47;;;14.86;100.00
2405;BME280;1213;43.206;27.922;2022-12-11T00:33:44;99924.44;;;14.83;100.00
2405;BME280;1213;43.206;27.922;2022-12-11T00:36:15;99913.00;;;14.64;100.00
2405;BME280;1213;43.206;27.922;2022-12-11T00:38:40;99912.91;;;14.56;100.00
2405;BME280;1213;43.206;27.922;2022-12-11T00:41:07;99901.50;;;14.56;100.00
2405;BME280;1213;43.206;27.922;2022-12-11T00:43:32;99891.00;;;14.64;100.00
2405;BME280;1213;43.206;27.922;2022-12-11T00:45:58;99892.00;;;14.63;100.00
2405;BME280;1213;43.206;27.922;2022-12-11T00:48:23;99876.56;;;14.58;100.00
2405;BME280;1213;43.206;27.922;2022-12-11T00:50:49;99864.72;;;14.62;100.00
2405;BME280;1213;43.206;27.922;2022-12-11T00:53:14;99863.59;;;14.65;100.00
2405;BME280;1213;43.206;27.922;2022-12-11T00:55:42;99867.38;;;14.80;100.00
2405;BME280;1213;43.206;27.922;2022-12-11T00:58:09;99860.19;;;14.73;100.00
2405;BME280;1213;43.206;27.922;2022-12-11T01:00:35;99858.84;;;14.68;100.00
2405;BME280;1213;43.206;27.922;2022-12-11T01:03:00;99854.81;;;14.64;100.00
2405;BME280;1213;43.206;27.922;2022-12-11T01:05:26;99848.47;;;14.57;100.00
2405;BME280;1213;43.206;27.922;2022-12-11T01:07:51;99851.28;;;14.56;100.00
2405;BME280;1213;43.206;27.922;2022-12-11T01:10:17;99853.91;;;14.56;100.00
2405;BME280;1213;43.206;27.922;2022-12-11T01:12:49;99852.41;;;14.53;100.00
2405;BME280;1213;43.206;27.922;2022-12-11T01:15:16;99856.56;;;14.56;100.00
2405;BME280;1213;43.206;27.922;2022-12-11T01:17:41;99849.38;;;14.48;100.00
2405;BME280;1213;43.206;27.922;2022-12-11T01:20:07;99844.66;;;14.42;100.00
2405;BME280;1213;43.206;27.922;2022-12-11T01:22:33;99839.53;;;14.40;100.00
2405;BME280;1213;43.206;27.922;2022-12-11T01:24:58;99839.69;;;14.39;100.00
2405;BME280;1213;43.206;27.922;2022-12-11T01:27:23;99831.66;;;14.31;100.00
2405;BME280;1213;43.206;27.922;2022-12-11T01:29:49;99842.63;;;14.36;100.00
2405;BME280;1213;43.206;27.922;2022-12-11T01:32:15;99841.44;;;14.48;100.00
2405;BME280;1213;43.206;27.922;2022-12-11T01:34:41;99832.75;;;14.38;100.00
2405;BME280;1213;43.206;27.922;2022-12-11T01:37:06;99835.63;;;14.44;100.00
2405;BME280;1213;43.206;27.922;2022-12-11T01:39:32;99830.69;;;14.59;100.00
2405;BME280;1213;43.206;27.922;2022-12-11T01:41:58;99831.94;;;14.55;100.00
2405;BME280;1213;43.206;27.922;2022-12-11T01:46:49;99819.56;;;14.56;100.00
2405;BME280;1213;43.206;27.922;2022-12-11T01:49:16;99821.38;;;14.55;100.00
2405;BME280;1213;43.206;27.922;2022-12-11T01:54:22;99824.44;;;14.51;100.00
2405;BME280;1213;43.206;27.922;2022-12-11T01:56:51;99824.13;;;14.36;100.00
2405;BME280;1213;43.206;27.922;2022-12-11T01:59:20;99809.22;;;14.35;100.00
2405;BME280;1213;43.206;27.922;2022-12-11T02:02:02;99806.22;;;14.30;100.00
2405;BME280;1213;43.206;27.922;2022-12-11T02:04:30;99808.16;;;14.28;100.00
2405;BME280;1213;43.206;27.922;2022-12-11T02:06:57;99808.72;;;14.31;100.00
2405;BME280;1213;43.206;27.922;2022-12-11T02:09:24;99817.00;;;14.19;100.00
2405;BME280;1213;43.206;27.922;2022-12-11T02:12:25;99800.97;;;14.20;100.00
2405;BME280;1213;43.206;27.922;2022-12-11T02:20:37;99779.75;;;13.94;100.00
2405;BME280;1213;43.206;27.922;2022-12-11T02:23:15;99777.41;;;13.91;100.00
2405;BME280;1213;43.206;27.922;2022-12-11T02:28:53;99735.34;;;13.80;100.00
2405;BME280;1213;43.206;27.922;2022-12-11T02:31:39;99740.94;;;13.77;100.00
2405;BME280;1213;43.206;27.922;2022-12-11T02:36:37;99740.03;;;13.68;100.00
2405;BME280;1213;43.206;27.922;2022-12-11T02:39:06;99737.97;;;13.62;100.00
2405;BME280;1213;43.206;27.922;2022-12-11T02:41:34;99721.38;;;13.70;100.00
2405;BME280;1213;43.206;27.922;2022-12-11T02:44:01;99723.88;;;13.71;100.00
2405;BME280;1213;43.206;27.922;2022-12-11T02:46:28;99724.03;;;13.70;100.00
2405;BME280;1213;43.206;27.922;2022-12-11T02:48:55;99716.63;;;13.73;100.00
2405;BME280;1213;43.206;27.922;2022-12-11T02:51:25;99727.00;;;13.84;100.00
2405;BME280;1213;43.206;27.922;2022-12-11T02:53:56;99724.88;;;13.88;100.00
2405;BME280;1213;43.206;27.922;2022-12-11T02:56:29;99718.09;;;13.85;100.00
2405;BME280;1213;43.206;27.922;2022-12-11T02:59:02;99713.63;;;13.86;100.00
2405;BME280;1213;43.206;27.922;2022-12-11T03:01:28;99693.28;;;13.96;100.00
2405;BME280;1213;43.206;27.922;2022-12-11T03:03:55;99695.56;;;13.91;100.00
2405;BME280;1213;43.206;27.922;2022-12-11T03:06:26;99686.09;;;13.88;100.00
2405;BME280;1213;43.206;27.922;2022-12-11T03:08:53;99695.56;;;13.91;100.00
2405;BME280;1213;43.206;27.922;2022-12-11T03:11:19;99685.19;;;13.98;100.00
2405;BME280;1213;43.206;27.922;2022-12-11T03:13:44;99680.31;;;13.85;100.00
2405;BME280;1213;43.206;27.922;2022-12-11T03:16:30;99677.75;;;13.93;100.00
2405;BME280;1213;43.206;27.922;2022-12-11T03:19:26;99680.31;;;13.85;100.00
2405;BME280;1213;43.206;27.922;2022-12-11T03:24:44;99674.09;;;13.76;100.00
2405;BME280;1213;43.206;27.922;2022-12-11T03:27:37;99666.72;;;13.80;100.00
2405;BME280;1213;43.206;27.922;2022-12-11T03:30:13;99664.66;;;13.74;100.00
2405;BME280;1213;43.206;27.922;2022-12-11T03:32:48;99657.56;;;13.74;100.00
2405;BME280;1213;43.206;27.922;2022-12-11T03:35:33;99660.22;;;13.74;100.00
2405;BME280;1213;43.206;27.922;2022-12-11T03:38:04;99661.19;;;13.73;100.00
2405;BME280;1213;43.206;27.922;2022-12-11T03:40:31;99663.09;;;13.81;100.00
2405;BME280;1213;43.206;27.922;2022-12-11T03:42:58;99669.19;;;13.81;100.00
2405;BME280;1213;43.206;27.922;2022-12-11T03:45:26;99666.44;;;13.83;100.00
2405;BME280;1213;43.206;27.922;2022-12-11T03:47:55;99663.16;;;13.89;100.00
2405;BME280;1213;43.206;27.922;2022-12-11T03:50:25;99669.16;;;13.91;100.00
2405;BME280;1213;43.206;27.922;2022-12-11T03:52:52;99660.69;;;13.87;100.00
2405;BME280;1213;43.206;27.922;2022-12-11T03:55:21;99663.03;;;13.91;100.00
2405;BME280;1213;43.206;27.922;2022-12-11T03:57:47;99657.75;;;13.91;100.00
2405;BME280;1213;43.206;27.922;2022-12-11T04:00:15;99638.34;;;14.00;100.00
2405;BME280;1213;43.206;27.922;2022-12-11T04:02:42;99631.19;;;13.92;100.00
2405;BME280;1213;43.206;27.922;2022-12-11T04:05:08;99630.19;;;13.93;100.00
2405;BME280;1213;43.206;27.922;2022-12-11T04:07:34;99612.78;;;14.00;100.00
2405;BME280;1213;43.206;27.922;2022-12-11T04:10:00;99598.97;;;14.06;100.00
2405;BME280;1213;43.206;27.922;2022-12-11T04:12:25;99597.81;;;14.09;100.00
2405;BME280;1213;43.206;27.922;2022-12-11T04:14:51;99583.13;;;14.06;100.00
2405;BME280;1213;43.206;27.922;2022-12-11T04:17:33;99555.00;;;14.05;100.00
2405;BME280;1213;43.206;27.922;2022-12-11T04:20:18;99554.66;;;14.00;100.00
2405;BME280;1213;43.206;27.922;2022-12-11T04:23:08;99549.38;;;14.00;100.00
2405;BME280;1213;43.206;27.922;2022-12-11T04:25:53;99541.47;;;14.00;100.00
2405;BME280;1213;43.206;27.922;2022-12-11T04:28:19;99543.34;;;14.08;100.00
2405;BME280;1213;43.206;27.922;2022-12-11T04:30:48;99540.94;;;13.97;100.00
2405;BME280;1213;43.206;27.922;2022-12-11T04:33:13;99546.91;;;13.99;100.00
2405;BME280;1213;43.206;27.922;2022-12-11T04:35:39;99551.34;;;13.98;100.00
2405;BME280;1213;43.206;27.922;2022-12-11T04:38:04;99541.41;;;13.92;100.00
2405;BME280;1213;43.206;27.922;2022-12-11T04:40:30;99534.81;;;13.96;100.00
2405;BME280;1213;43.206;27.922;2022-12-11T04:42:55;99521.09;;;13.93;100.00
2405;BME280;1213;43.206;27.922;2022-12-11T04:45:21;99527.81;;;13.87;100.00
2405;BME280;1213;43.206;27.922;2022-12-11T04:47:46;99514.63;;;13.87;100.00
2405;BME280;1213;43.206;27.922;2022-12-11T04:50:13;99529.53;;;13.96;100.00
2405;BME280;1213;43.206;27.922;2022-12-11T04:52:39;99525.78;;;13.99;100.00
2405;BME280;1213;43.206;27.922;2022-12-11T04:55:05;99514.53;;;13.97;100.00
2405;BME280;1213;43.206;27.922;2022-12-11T04:57:31;99506.75;;;13.95;100.00
2405;BME280;1213;43.206;27.922;2022-12-11T04:59:57;99524.84;;;14.08;100.00
2405;BME280;1213;43.206;27.922;2022-12-11T05:02:24;99491.78;;;14.04;100.00
2405;BME280;1213;43.206;27.922;2022-12-11T05:04:50;99500.84;;;14.01;100.00
2405;BME280;1213;43.206;27.922;2022-12-11T05:07:16;99488.41;;;14.20;100.00
2405;BME280;1213;43.206;27.922;2022-12-11T05:09:41;99461.84;;;14.47;100.00
2405;BME280;1213;43.206;27.922;2022-12-11T05:12:07;99452.50;;;14.69;100.00
2405;BME280;1213;43.206;27.922;2022-12-11T05:14:32;99455.41;;;15.16;100.00
2405;BME280;1213;43.206;27.922;2022-12-11T05:16:58;99440.19;;;15.59;100.00
2405;BME280;1213;43.206;27.922;2022-12-11T05:19:24;99441.53;;;15.88;100.00
2405;BME280;1213;43.206;27.922;2022-12-11T05:21:50;99455.41;;;15.98;100.00
2405;BME280;1213;43.206;27.922;2022-12-11T05:24:15;99467.41;;;16.33;100.00
2405;BME280;1213;43.206;27.922;2022-12-11T05:26:40;99475.66;;;16.38;100.00
2405;BME280;1213;43.206;27.922;2022-12-11T05:29:06;99490.69;;;16.46;100.00
2405;BME280;1213;43.206;27.922;2022-12-11T05:31:31;99491.34;;;16.56;100.00
2405;BME280;1213;43.206;27.922;2022-12-11T05:33:57;99500.88;;;16.81;100.00
2405;BME280;1213;43.206;27.922;2022-12-11T05:36:24;99506.78;;;16.91;100.00
2405;BME280;1213;43.206;27.922;2022-12-11T05:38:51;99514.69;;;17.08;100.00
2405;BME280;1213;43.206;27.922;2022-12-11T05:41:20;99510.19;;;17.08;100.00
2405;BME280;1213;43.206;27.922;2022-12-11T05:43:46;99530.06;;;17.12;100.00
2405;BME280;1213;43.206;27.922;2022-12-11T05:46:23;99536.34;;;17.19;100.00
2405;BME280;1213;43.206;27.922;2022-12-11T05:48:52;99534.72;;;17.10;100.00
2405;BME280;1213;43.206;27.922;2022-12-11T05:51:18;99528.94;;;17.07;100.00
2405;BME280;1213;43.206;27.922;2022-12-11T05:53:45;99529.56;;;17.17;100.00
2405;BME280;1213;43.206;27.922;2022-12-11T05:56:17;99533.81;;;17.26;100.00
2405;BME280;1213;43.206;27.922;2022-12-11T05:58:44;99544.84;;;17.38;100.00
2405;BME280;1213;43.206;27.922;2022-12-11T06:01:16;99560.50;;;17.56;100.00
2405;BME280;1213;43.206;27.922;2022-12-11T06:03:42;99550.53;;;17.58;100.00
2405;BME280;1213;43.206;27.922;2022-12-11T06:06:07;99555.38;;;17.54;100.00
2405;BME280;1213;43.206;27.922;2022-12-11T06:08:33;99555.59;;;17.44;100.00
2405;BME280;1213;43.206;27.922;2022-12-11T06:10:59;99562.31;;;17.32;100.00
2405;BME280;1213;43.206;27.922;2022-12-11T06:13:25;99563.28;;;17.39;100.00
2405;BME280;1213;43.206;27.922;2022-12-11T06:15:51;99573.16;;;17.45;100.00
2405;BME280;1213;43.206;27.922;2022-12-11T06:18:17;99573.16;;;17.45;100.00
2405;BME280;1213;43.206;27.922;2022-12-11T06:20:42;99568.47;;;17.56;100.00
2405;BME280;1213;43.206;27.922;2022-12-11T06:23:08;99565.28;;;17.60;100.00
2405;BME280;1213;43.206;27.922;2022-12-11T06:25:34;99560.09;;;17.67;100.00
2405;BME280;1213;43.206;27.922;2022-12-11T06:27:59;99550.44;;;17.74;100.00
2405;BME280;1213;43.206;27.922;2022-12-11T06:30:25;99556.59;;;17.66;100.00
2405;BME280;1213;43.206;27.922;2022-12-11T06:32:50;99556.75;;;17.73;100.00
2405;BME280;1213;43.206;27.922;2022-12-11T06:35:16;99560.84;;;17.84;100.00
2405;BME280;1213;43.206;27.922;2022-12-11T06:37:41;99562.50;;;17.85;100.00
2405;BME280;1213;43.206;27.922;2022-12-11T06:40:08;99552.94;;;17.90;100.00
2405;BME280;1213;43.206;27.922;2022-12-11T06:42:35;99558.06;;;17.77;100.00
2405;BME280;1213;43.206;27.922;2022-12-11T06:45:01;99563.44;;;17.92;100.00
2405;BME280;1213;43.206;27.922;2022-12-11T06:47:29;99566.13;;;18.07;100.00
2405;BME280;1213;43.206;27.922;2022-12-11T06:49:55;99570.06;;;18.11;100.00
2405;BME280;1213;43.206;27.922;2022-12-11T06:52:22;99573.44;;;18.05;100.00
2405;BME280;1213;43.206;27.922;2022-12-11T06:54:47;99576.75;;;18.07;100.00
2405;BME280;1213;43.206;27.922;2022-12-11T06:57:14;99572.53;;;18.12;100.00
2405;BME280;1213;43.206;27.922;2022-12-11T06:59:39;99578.25;;;18.24;100.00
2405;BME280;1213;43.206;27.922;2022-12-11T07:02:05;99568.66;;;18.38;100.00
2405;BME280;1213;43.206;27.922;2022-12-11T07:04:31;99575.16;;;18.50;100.00
2405;BME280;1213;43.206;27.922;2022-12-11T07:06:56;99574.72;;;18.46;100.00
2405;BME280;1213;43.206;27.922;2022-12-11T07:09:22;99574.00;;;18.52;100.00
2405;BME280;1213;43.206;27.922;2022-12-11T07:11:51;99572.34;;;18.51;100.00
2405;BME280;1213;43.206;27.922;2022-12-11T07:14:17;99580.59;;;18.56;100.00
2405;BME280;1213;43.206;27.922;2022-12-11T07:16:43;99595.91;;;18.54;100.00
2405;BME280;1213;43.206;27.922;2022-12-11T07:19:09;99594.66;;;18.27;100.00
2405;BME280;1213;43.206;27.922;2022-12-11T07:21:35;99594.53;;;17.52;100.00
2405;BME280;1213;43.206;27.922;2022-12-11T07:24:00;99579.31;;;17.15;100.00
2405;BME280;1213;43.206;27.922;2022-12-11T07:26:26;99581.38;;;17.05;100.00
2405;BME280;1213;43.206;27.922;2022-12-11T07:28:51;99585.16;;;17.10;100.00
2405;BME280;1213;43.206;27.922;2022-12-11T07:31:20;99578.63;;;17.21;100.00
2405;BME280;1213;43.206;27.922;2022-12-11T07:33:46;99583.84;;;17.37;100.00
2405;BME280;1213;43.206;27.922;2022-12-11T07:36:13;99580.63;;;17.19;100.00
2405;BME280;1213;43.206;27.922;2022-12-11T07:38:39;99568.22;;;17.11;100.00
2405;BME280;1213;43.206;27.922;2022-12-11T07:41:07;99572.31;;;17.22;100.00
2405;BME280;1213;43.206;27.922;2022-12-11T07:43:34;99576.91;;;17.59;100.00
2405;BME280;1213;43.206;27.922;2022-12-11T07:46:07;99591.28;;;17.96;100.00
2405;BME280;1213;43.206;27.922;2022-12-11T07:48:34;99566.13;;;18.07;100.00
2405;BME280;1213;43.206;27.922;2022-12-11T07:51:14;99576.69;;;18.15;100.00
2405;BME280;1213;43.206;27.922;2022-12-11T07:53:41;99579.91;;;18.25;100.00
2405;BME280;1213;43.206;27.922;2022-12-11T07:56:06;99572.22;;;18.30;100.00
2405;BME280;1213;43.206;27.922;2022-12-11T07:58:34;99566.91;;;18.30;100.00
2405;BME280;1213;43.206;27.922;2022-12-11T08:01:00;99562.94;;;18.26;100.00
2405;BME280;1213;43.206;27.922;2022-12-11T08:03:26;99566.34;;;18.35;100.00
2405;BME280;1213;43.206;27.922;2022-12-11T08:05:53;99572.88;;;18.47;100.00
2405;BME280;1213;43.206;27.922;2022-12-11T08:08:18;99573.63;;;18.55;100.00
2405;BME280;1213;43.206;27.922;2022-12-11T08:10:44;99573.31;;;18.50;100.00
2405;BME280;1213;43.206;27.922;2022-12-11T08:13:10;99562.03;;;18.48;100.00
2405;BME280;1213;43.206;27.922;2022-12-11T08:15:36;99579.75;;;18.41;100.00
2405;BME280;1213;43.206;27.922;2022-12-11T08:18:02;99572.59;;;18.42;100.00
2405;BME280;1213;43.206;27.922;2022-12-11T08:20:29;99575.72;;;18.45;100.00
2405;BME280;1213;43.206;27.922;2022-12-11T08:22:56;99583.97;;;18.50;100.00
2405;BME280;1213;43.206;27.922;2022-12-11T08:25:22;99569.69;;;18.51;100.00
2405;BME280;1213;43.206;27.922;2022-12-11T08:27:48;99578.28;;;18.53;100.00
2405;BME280;1213;43.206;27.922;2022-12-11T08:30:13;99556.63;;;18.56;100.00
2405;BME280;1213;43.206;27.922;2022-12-11T08:32:39;99549.84;;;18.54;100.00
2405;BME280;1213;43.206;27.922;2022-12-11T08:35:05;99523.88;;;18.56;100.00
2405;BME280;1213;43.206;27.922;2022-12-11T08:37:32;99532.97;;;18.62;100.00
2405;BME280;1213;43.206;27.922;2022-12-11T08:39:58;99519.03;;;18.60;100.00
2405;BME280;1213;43.206;27.922;2022-12-11T08:42:23;99512.13;;;18.65;100.00
2405;BME280;1213;43.206;27.922;2022-12-11T08:44:49;99485.00;;;18.55;100.00
2405;BME280;1213;43.206;27.922;2022-12-11T08:47:16;99475.66;;;18.59;100.00
2405;BME280;1213;43.206;27.922;2022-12-11T08:49:41;99469.25;;;18.68;100.00
2405;BME280;1213;43.206;27.922;2022-12-11T08:52:07;99469.44;;;18.88;100.00
2405;BME280;1213;43.206;27.922;2022-12-11T08:54:32;99467.97;;;19.00;100.00
2405;BME280;1213;43.206;27.922;2022-12-11T08:56:58;99479.81;;;18.98;100.00
2405;BME280;1213;43.206;27.922;2022-12-11T08:59:23;99473.66;;;19.19;100.00
2405;BME280;1213;43.206;27.922;2022-12-11T09:01:50;99478.19;;;19.39;100.00
2405;BME280;1213;43.206;27.922;2022-12-11T09:04:16;99480.16;;;19.52;100.00
2405;BME280;1213;43.206;27.922;2022-12-11T09:06:43;99490.97;;;19.65;100.00
2405;BME280;1213;43.206;27.922;2022-12-11T09:09:08;99506.16;;;19.72;100.00
2405;BME280;1213;43.206;27.922;2022-12-11T09:11:35;99478.22;;;19.61;100.00
2405;BME280;1213;43.206;27.922;2022-12-11T09:14:02;99464.59;;;19.77;100.00
2405;BME280;1213;43.206;27.922;2022-12-11T09:16:28;99462.19;;;19.82;100.00
2405;BME280;1213;43.206;27.922;2022-12-11T09:18:55;99472.84;;;19.82;100.00
2405;BME280;1213;43.206;27.922;2022-12-11T09:21:24;99474.50;;;20.11;100.00
2405;BME280;1213;43.206;27.922;2022-12-11T09:23:56;99471.78;;;20.05;100.00
2405;BME280;1213;43.206;27.922;2022-12-11T09:26:26;99488.34;;;20.00;100.00
2405;BME280;1213;43.206;27.922;2022-12-11T09:28:53;99484.59;;;19.88;100.00
2405;BME280;1213;43.206;27.922;2022-12-11T09:33:48;99485.59;;;19.87;100.00
2405;BME280;1213;43.206;27.922;2022-12-11T09:36:14;99478.94;;;19.76;100.00
2405;BME280;1213;43.206;27.922;2022-12-11T09:38:40;99472.31;;;19.65;100.00
2405;BME280;1213;43.206;27.922;2022-12-11T09:46:25;99461.31;;;19.54;100.00
2405;BME280;1213;43.206;27.922;2022-12-11T09:48:51;99452.22;;;20.26;100.00
2405;BME280;1213;43.206;27.922;2022-12-11T09:51:45;99434.78;;;20.30;100.00
2405;BME280;1213;43.206;27.922;2022-12-11T09:54:13;99429.78;;;20.48;100.00
2405;BME280;1213;43.206;27.922;2022-12-11T09:56:44;99442.28;;;20.47;100.00
2405;BME280;1213;43.206;27.922;2022-12-11T09:59:30;99434.34;;;20.61;100.00
2405;BME280;1213;43.206;27.922;2022-12-11T10:07:55;99424.22;;;21.11;100.00
2405;BME280;1213;43.206;27.922;2022-12-11T10:10:49;99425.91;;;21.65;100.00
2405;BME280;1213;43.206;27.922;2022-12-11T10:18:32;99446.88;;;21.74;100.00
2405;BME280;1213;43.206;27.922;2022-12-11T10:21:00;99449.16;;;21.64;100.00
2405;BME280;1213;43.206;27.922;2022-12-11T10:23:31;99446.84;;;22.01;100.00
2405;BME280;1213;43.206;27.922;2022-12-11T10:26:07;99431.03;;;21.73;100.00
2405;BME280;1213;43.206;27.922;2022-12-11T10:28:35;99427.34;;;21.74;100.00
2405;BME280;1213;43.206;27.922;2022-12-11T10:31:27;99434.31;;;21.88;100.00
2405;BME280;1213;43.206;27.922;2022-12-11T10:34:11;99422.97;;;22.06;100.00
2405;BME280;1213;43.206;27.922;2022-12-11T10:36:39;99412.09;;;21.87;100.00
2405;BME280;1213;43.206;27.922;2022-12-11T10:39:18;99419.31;;;21.80;100.00
2405;BME280;1213;43.206;27.922;2022-12-11T10:41:46;99424.88;;;21.46;100.00
2405;BME280;1213;43.206;27.922;2022-12-11T10:44:18;99420.97;;;21.35;100.00
2405;BME280;1213;43.206;27.922;2022-12-11T10:46:47;99428.41;;;21.46;100.00
2405;BME280;1213;43.206;27.922;2022-12-11T10:49:24;99419.94;;;21.56;100.00
2405;BME280;1213;43.206;27.922;2022-12-11T10:51:51;99422.41;;;21.71;100.00
2405;BME280;1213;43.206;27.922;2022-12-11T10:54:44;99419.09;;;21.69;100.00
2405;BME280;1213;43.206;27.922;2022-12-11T10:57:13;99427.53;;;21.26;100.00
2405;BME280;1213;43.206;27.922;2022-12-11T11:04:44;99437.00;;;21.68;100.00
2405;BME280;1213;43.206;27.922;2022-12-11T11:07:17;99430.72;;;22.40;100.00
2405;BME280;1213;43.206;27.922;2022-12-11T11:09:44;99430.28;;;22.95;100.00
2405;BME280;1213;43.206;27.922;2022-12-11T11:12:22;99429.81;;;23.36;100.00
2405;BME280;1213;43.206;27.922;2022-12-11T11:17:30;99445.09;;;22.53;100.00
2405;BME280;1213;43.206;27.922;2022-12-11T11:19:59;99446.97;;;22.46;100.00
2405;BME280;1213;43.206;27.922;2022-12-11T11:22:31;99441.72;;;21.53;100.00
2405;BME280;1213;43.206;27.922;2022-12-11T11:24:57;99441.94;;;21.38;100.00
2405;BME280;1213;43.206;27.922;2022-12-11T11:29:52;99439.47;;;21.37;100.00
2405;BME280;1213;43.206;27.922;2022-12-11T11:32:29;99437.41;;;21.58;100.00
2405;BME280;1213;43.206;27.922;2022-12-11T11:37:38;99447.91;;;21.33;100.00
2405;BME280;1213;43.206;27.922;2022-12-11T11:42:55;99454.72;;;20.34;100.00
2405;BME280;1213;43.206;27.922;2022-12-11T11:45:51;99447.72;;;19.49;100.00
2405;BME280;1213;43.206;27.922;2022-12-11T11:50:51;99434.72;;;18.96;100.00
2405;BME280;1213;43.206;27.922;2022-12-11T11:53:30;99448.38;;;18.57;100.00
2405;BME280;1213;43.206;27.922;2022-12-11T11:56:13;99453.06;;;18.55;100.00
2405;BME280;1213;43.206;27.922;2022-12-11T11:58:49;99455.84;;;18.47;100.00
2405;BME280;1213;43.206;27.922;2022-12-11T12:01:18;99452.06;;;18.12;100.00
2405;BME280;1213;43.206;27.922;2022-12-11T12:03:46;99443.09;;;18.13;100.00
2405;BME280;1213;43.206;27.922;2022-12-11T12:14:57;99432.91;;;18.46;100.00
2405;BME280;1213;43.206;27.922;2022-12-11T12:17:35;99436.66;;;18.51;100.00
2405;BME280;1213;43.206;27.922;2022-12-11T12:20:21;99444.53;;;18.74;100.00
2405;BME280;1213;43.206;27.922;2022-12-11T12:25:41;99449.06;;;18.95;100.00
2405;BME280;1213;43.206;27.922;2022-12-11T12:36:34;99425.72;;;19.19;100.00
2405;BME280;1213;43.206;27.922;2022-12-11T12:41:57;99422.00;;;19.84;100.00
2405;BME280;1213;43.206;27.922;2022-12-11T12:44:32;99416.09;;;19.60;100.00
2405;BME280;1213;43.206;27.922;2022-12-11T12:47:10;99415.38;;;19.52;100.00
2405;BME280;1213;43.206;27.922;2022-12-11T12:49:43;99422.50;;;19.45;100.00
2405;BME280;1213;43.206;27.922;2022-12-11T12:52:39;99420.94;;;19.29;100.00
2405;BME280;1213;43.206;27.922;2022-12-11T12:55:21;99419.66;;;19.25;100.00
2405;BME280;1213;43.206;27.922;2022-12-11T12:58:03;99427.47;;;19.05;100.00
2405;BME280;1213;43.206;27.922;2022-12-11T13:00:36;99420.97;;;18.93;100.00
2405;BME280;1213;43.206;27.922;2022-12-11T13:03:23;99439.78;;;18.70;100.00
2405;BME280;1213;43.206;27.922;2022-12-11T13:06:14;99440.03;;;18.60;100.00
2405;BME280;1213;43.206;27.922;2022-12-11T13:08:46;99439.22;;;18.60;100.00
2405;BME280;1213;43.206;27.922;2022-12-11T13:11:16;99441.13;;;18.51;100.00
2405;BME280;1213;43.206;27.922;2022-12-11T13:18:41;99443.75;;;18.44;100.00
2405;BME280;1213;43.206;27.922;2022-12-11T13:23:51;99437.66;;;18.36;100.00
2405;BME280;1213;43.206;27.922;2022-12-11T13:26:31;99437.22;;;18.17;100.00
2405;BME280;1213;43.206;27.922;2022-12-11T13:28:58;99442.66;;;18.24;100.00
2405;BME280;1213;43.206;27.922;2022-12-11T13:31:37;99436.13;;;18.12;100.00
2405;BME280;1213;43.206;27.922;2022-12-11T13:34:16;99443.47;;;18.10;100.00
2405;BME280;1213;43.206;27.922;2022-12-11T13:36:52;99432.38;;;18.06;100.00
2405;BME280;1213;43.206;27.922;2022-12-11T13:39:24;99434.75;;;18.01;100.00
2405;BME280;1213;43.206;27.922;2022-12-11T13:42:03;99434.56;;;17.88;100.00
2405;BME280;1213;43.206;27.922;2022-12-11T13:44:33;99433.91;;;17.71;100.00
2405;BME280;1213;43.206;27.922;2022-12-11T13:47:02;99430.47;;;17.62;100.00
2405;BME280;1213;43.206;27.922;2022-12-11T13:49:35;99426.81;;;17.63;100.00
2405;BME280;1213;43.206;27.922;2022-12-11T13:52:02;99429.09;;;17.66;100.00
2405;BME280;1213;43.206;27.922;2022-12-11T13:54:33;99437.94;;;17.59;100.00
2405;BME280;1213;43.206;27.922;2022-12-11T13:59:37;99453.09;;;17.35;100.00
2405;BME280;1213;43.206;27.922;2022-12-11T14:02:28;99451.13;;;17.29;100.00
2405;BME280;1213;43.206;27.922;2022-12-11T14:04:57;99449.03;;;17.25;100.00
2405;BME280;1213;43.206;27.922;2022-12-11T14:07:32;99454.22;;;17.18;100.00
2405;BME280;1213;43.206;27.922;2022-12-11T14:12:43;99461.53;;;16.85;100.00
2405;BME280;1213;43.206;27.922;2022-12-11T14:15:12;99456.97;;;16.79;100.00
2405;BME280;1213;43.206;27.922;2022-12-11T14:17:41;99452.69;;;16.61;100.00
2405;BME280;1213;43.206;27.922;2022-12-11T14:20:16;99476.41;;;16.55;100.00
2405;BME280;1213;43.206;27.922;2022-12-11T14:22:42;99466.56;;;16.41;100.00
2405;BME280;1213;43.206;27.922;2022-12-11T14:25:18;99470.34;;;16.38;100.00
2405;BME280;1213;43.206;27.922;2022-12-11T14:27:48;99481.47;;;16.42;100.00
2405;BME280;1213;43.206;27.922;2022-12-11T14:30:23;99493.06;;;16.41;100.00
2405;BME280;1213;43.206;27.922;2022-12-11T14:32:51;99497.66;;;16.47;100.00
2405;BME280;1213;43.206;27.922;2022-12-11T14:35:27;99507.13;;;16.49;100.00
2405;BME280;1213;43.206;27.922;2022-12-11T14:37:55;99505.25;;;16.58;100.00
2405;BME280;1213;43.206;27.922;2022-12-11T14:40:25;99496.16;;;16.52;100.00
2405;BME280;1213;43.206;27.922;2022-12-11T14:42:58;99490.06;;;16.44;100.00
2405;BME280;1213;43.206;27.922;2022-12-11T14:45:38;99500.03;;;16.33;100.00